Antimony, UT

3:52 AM MDT on July 23, 2014 (GMT -0600)
Bryce Canyon (KBCE) Elev 7585 ft | 37.71 °N, 112.15 °W | Change Station
Active Advisory: Fire Weather Warning

Current weather conditions updated 59 minutes ago

Clear
Clear
53 °F
Feels Like 53 °F
N
7
Wind Variable Wind from West

Today is forecast to be Cooler than yesterday.

Today
High -- | Low -- °F
--% Chance of Precip.
Yesterday
High -- | Low -- °F
Precip. -- in
6:24 AM 8:45 PM
Waning Crescent, 11% visible
Pressure 30.06 in
Visibility 10.0 miles
Clouds Clear
Dew Point 34 °F
Humidity 48%
Rainfall 0.00 in
Snow Depth 0 in
UV 0 out of 12
Pollen 4.80 out of 12
Air Quality Not available.
Flu Activity Not available.
METAR KBCE 230853Z AUTO 26006KT 10SM CLR 12/01 A3045 RMK AO2 SLP179 T01170011 50001 $

More Conditions Fewer Conditions

Pressure 30.06 in
Visibility 10.0 miles
Clouds Clear
Dew Point 34 °F
Humidity 48%
Rainfall 0.00 in
Snow Depth 0 in
UV 0 out of 12
Pollen 4.80 out of 12
Air Quality Not available.
Flu Activity Not available.
METAR KBCE 230853Z AUTO 26006KT 10SM CLR 12/01 A3045 RMK AO2 SLP179 T01170011 50001 $

More Conditions Fewer Conditions

10-Day Weather Forecast

Almanac

Astronomy

Jul. 23, 2014 Rise Set
Actual Time 6:24 AM MDT 8:45 PM MDT
Civil Twilight 5:54 AM MDT 9:15 PM MDT
Nautical Twilight 5:17 AM MDT 9:51 PM MDT
Astronomical Twilight 4:36 AM MDT 10:32 PM MDT
Moon 3:45 AM MDT 6:17 PM MDT
Length of Visible Light 15h 20m
Length of Day
14h 21m
Tomorrow will be 1m 34s shorter.
Waning Crescent, 11% of the Moon is Illuminated
Today
Waning Crescent
Jul 26
New
Aug 3
First Quarter
Aug 10
Full
Aug 17
Last Quarter

Today's Extremes

State Highs State Lows

Community

WunderPhotos

Upload Photos

1,736,535 photos uploaded!

Nearby

Snow Depth

Station Depth Elevation
Clayton Springs 0 in 10000 ft
Merchant Valley 1 in 8750 ft
Agua Canyon 3 in 8900 ft
Long Valley Jct 0 in 7360 ft
Box Creek 1 in 9800 ft

Earthquake Activity

City Distance Mag. Time & Date
No recent earthquake activity has been reported nearby.
Minimum magnitude displayed is 2.5.

Coastal Water Temperatures

Place Temperature
No Stations Reporting

Nearby Weather Stations

Station Location Temp. Dew Point Humidity Wind Precip. Elev Updated Type
RAWS BRYCE CANYON UT, Bryce, UT 51 °F 32 °F 48% North  at  0 mph 0.00 in / hr 7854 ft 2:23 AM MDT MADIS
RAWS FISHLAKE D4 PT #4 UT, Greenwich, UT 64 °F 31 °F 29% SE  at  2 mph 0.00 in / hr 7773 ft 3:01 AM MDT MADIS
RAWS DIXIE PORTABLE #2 UT, Hatch, UT 56 °F 31 °F 39% North  at  0 mph 0.00 in / hr 7189 ft 2:39 AM MDT MADIS
MesoWest PANGUITCH , Panguitch, UT 53 °F 40 °F 61% SW  at  3 mph 0.00 in / hr 6555 ft 2:00 AM MDT MADIS
MesoWest CIRCLEVILLE , Circleville, UT 65 °F 34 °F 31% West  at  2 mph 0.00 in / hr 6120 ft 2:00 AM MDT MADIS
Tropic High School, Tropic, UT 61.5 °F 61 °F 98% WSW  at  2.2 mph - / hr 6388 ft 3:43 AM MDT Normal

Show More Stations Show Fewer Stations